sensor_id;sensor_type;location;lat;lon;timestamp;P1;durP1;ratioP1;P2;durP2;ratioP2
67839;SDS011;54636;51.684;5.142;2023-01-28T00:00:28;6.10;;;5.63;;
67839;SDS011;54636;51.684;5.142;2023-01-28T00:02:53;6.53;;;5.93;;
67839;SDS011;54636;51.684;5.142;2023-01-28T00:05:18;5.57;;;5.18;;
67839;SDS011;54636;51.684;5.142;2023-01-28T00:07:44;5.15;;;4.82;;
67839;SDS011;54636;51.684;5.142;2023-01-28T00:10:09;7.70;;;7.00;;
67839;SDS011;54636;51.684;5.142;2023-01-28T00:12:35;6.35;;;5.75;;
67839;SDS011;54636;51.684;5.142;2023-01-28T00:15:00;8.10;;;7.30;;
67839;SDS011;54636;51.684;5.142;2023-01-28T00:17:26;7.50;;;6.88;;
67839;SDS011;54636;51.684;5.142;2023-01-28T00:19:51;5.97;;;5.57;;
67839;SDS011;54636;51.684;5.142;2023-01-28T00:22:17;5.10;;;4.70;;
67839;SDS011;54636;51.684;5.142;2023-01-28T00:24:42;5.65;;;5.25;;
67839;SDS011;54636;51.684;5.142;2023-01-28T00:27:08;5.25;;;4.90;;
67839;SDS011;54636;51.684;5.142;2023-01-28T00:29:34;5.97;;;5.57;;
67839;SDS011;54636;51.684;5.142;2023-01-28T00:31:59;5.80;;;5.40;;
67839;SDS011;54636;51.684;5.142;2023-01-28T00:34:25;5.95;;;5.55;;
67839;SDS011;54636;51.684;5.142;2023-01-28T00:36:50;6.03;;;5.63;;
67839;SDS011;54636;51.684;5.142;2023-01-28T00:39:22;6.05;;;5.57;;
67839;SDS011;54636;51.684;5.142;2023-01-28T00:41:49;5.45;;;5.05;;
67839;SDS011;54636;51.684;5.142;2023-01-28T00:44:14;5.57;;;5.18;;
67839;SDS011;54636;51.684;5.142;2023-01-28T00:46:40;5.75;;;5.35;;
67839;SDS011;54636;51.684;5.142;2023-01-28T00:49:06;5.97;;;5.57;;
67839;SDS011;54636;51.684;5.142;2023-01-28T00:51:32;6.20;;;5.75;;
67839;SDS011;54636;51.684;5.142;2023-01-28T00:53:58;5.20;;;4.90;;
67839;SDS011;54636;51.684;5.142;2023-01-28T00:56:23;6.63;;;5.97;;
67839;SDS011;54636;51.684;5.142;2023-01-28T00:58:49;5.88;;;5.47;;
67839;SDS011;54636;51.684;5.142;2023-01-28T01:01:16;6.20;;;5.80;;
67839;SDS011;54636;51.684;5.142;2023-01-28T01:03:43;6.25;;;5.85;;
67839;SDS011;54636;51.684;5.142;2023-01-28T01:06:10;6.28;;;5.88;;
67839;SDS011;54636;51.684;5.142;2023-01-28T01:08:36;6.70;;;6.15;;
67839;SDS011;54636;51.684;5.142;2023-01-28T01:11:07;6.90;;;6.43;;
67839;SDS011;54636;51.684;5.142;2023-01-28T01:13:34;5.53;;;5.20;;
67839;SDS011;54636;51.684;5.142;2023-01-28T01:16:04;6.05;;;5.65;;
67839;SDS011;54636;51.684;5.142;2023-01-28T01:18:29;5.68;;;5.18;;
67839;SDS011;54636;51.684;5.142;2023-01-28T01:20:55;6.03;;;5.53;;
67839;SDS011;54636;51.684;5.142;2023-01-28T01:23:26;6.45;;;5.97;;
67839;SDS011;54636;51.684;5.142;2023-01-28T01:25:55;6.03;;;5.50;;
67839;SDS011;54636;51.684;5.142;2023-01-28T01:28:20;6.07;;;5.68;;
67839;SDS011;54636;51.684;5.142;2023-01-28T01:30:47;5.72;;;5.32;;
67839;SDS011;54636;51.684;5.142;2023-01-28T01:33:13;6.55;;;6.05;;
67839;SDS011;54636;51.684;5.142;2023-01-28T01:35:39;5.85;;;5.45;;
67839;SDS011;54636;51.684;5.142;2023-01-28T01:38:04;6.15;;;5.65;;
67839;SDS011;54636;51.684;5.142;2023-01-28T01:40:30;6.43;;;5.93;;
67839;SDS011;54636;51.684;5.142;2023-01-28T01:42:55;5.97;;;5.57;;
67839;SDS011;54636;51.684;5.142;2023-01-28T01:45:21;6.35;;;5.90;;
67839;SDS011;54636;51.684;5.142;2023-01-28T01:47:49;5.97;;;5.57;;
67839;SDS011;54636;51.684;5.142;2023-01-28T01:50:18;6.13;;;5.73;;
67839;SDS011;54636;51.684;5.142;2023-01-28T01:52:44;6.30;;;5.90;;
67839;SDS011;54636;51.684;5.142;2023-01-28T01:55:13;5.95;;;5.47;;
67839;SDS011;54636;51.684;5.142;2023-01-28T02:00:09;5.82;;;5.43;;
67839;SDS011;54636;51.684;5.142;2023-01-28T02:02:38;5.88;;;5.38;;
67839;SDS011;54636;51.684;5.142;2023-01-28T02:05:07;5.88;;;5.47;;
67839;SDS011;54636;51.684;5.142;2023-01-28T02:07:33;6.45;;;5.95;;
67839;SDS011;54636;51.684;5.142;2023-01-28T02:09:59;6.13;;;5.72;;
67839;SDS011;54636;51.684;5.142;2023-01-28T02:12:29;5.72;;;5.32;;
67839;SDS011;54636;51.684;5.142;2023-01-28T02:15:05;6.47;;;5.97;;
67839;SDS011;54636;51.684;5.142;2023-01-28T02:17:32;6.03;;;5.63;;
67839;SDS011;54636;51.684;5.142;2023-01-28T02:20:00;6.47;;;5.93;;
67839;SDS011;54636;51.684;5.142;2023-01-28T02:22:50;6.68;;;6.07;;
67839;SDS011;54636;51.684;5.142;2023-01-28T02:33:32;6.65;;;6.07;;
67839;SDS011;54636;51.684;5.142;2023-01-28T02:36:09;6.25;;;5.82;;
67839;SDS011;54636;51.684;5.142;2023-01-28T02:38:47;7.20;;;6.68;;
67839;SDS011;54636;51.684;5.142;2023-01-28T02:41:26;6.70;;;6.20;;
67839;SDS011;54636;51.684;5.142;2023-01-28T02:43:55;6.28;;;5.88;;
67839;SDS011;54636;51.684;5.142;2023-01-28T02:49:11;6.13;;;5.72;;
67839;SDS011;54636;51.684;5.142;2023-01-28T02:57:08;6.53;;;6.03;;
67839;SDS011;54636;51.684;5.142;2023-01-28T03:02:48;7.07;;;6.53;;
67839;SDS011;54636;51.684;5.142;2023-01-28T03:05:38;6.43;;;5.90;;
67839;SDS011;54636;51.684;5.142;2023-01-28T03:08:28;6.68;;;6.18;;
67839;SDS011;54636;51.684;5.142;2023-01-28T03:11:15;7.38;;;6.78;;
67839;SDS011;54636;51.684;5.142;2023-01-28T03:13:59;7.00;;;6.40;;
67839;SDS011;54636;51.684;5.142;2023-01-28T03:16:44;6.53;;;6.03;;
67839;SDS011;54636;51.684;5.142;2023-01-28T03:19:29;6.40;;;5.90;;
67839;SDS011;54636;51.684;5.142;2023-01-28T03:22:13;5.85;;;5.45;;
67839;SDS011;54636;51.684;5.142;2023-01-28T03:24:58;6.63;;;6.13;;
67839;SDS011;54636;51.684;5.142;2023-01-28T03:27:46;6.53;;;6.03;;
67839;SDS011;54636;51.684;5.142;2023-01-28T03:30:43;7.72;;;7.13;;
67839;SDS011;54636;51.684;5.142;2023-01-28T03:33:31;7.32;;;6.65;;
67839;SDS011;54636;51.684;5.142;2023-01-28T03:36:17;7.22;;;6.72;;
67839;SDS011;54636;51.684;5.142;2023-01-28T03:39:02;7.57;;;6.85;;
67839;SDS011;54636;51.684;5.142;2023-01-28T03:41:27;6.93;;;6.22;;
67839;SDS011;54636;51.684;5.142;2023-01-28T03:43:53;8.52;;;7.72;;
67839;SDS011;54636;51.684;5.142;2023-01-28T03:46:19;7.35;;;6.75;;
67839;SDS011;54636;51.684;5.142;2023-01-28T03:48:45;6.78;;;6.22;;
67839;SDS011;54636;51.684;5.142;2023-01-28T03:51:10;7.68;;;6.90;;
67839;SDS011;54636;51.684;5.142;2023-01-28T03:53:37;6.95;;;6.35;;
67839;SDS011;54636;51.684;5.142;2023-01-28T03:56:04;7.50;;;6.90;;
67839;SDS011;54636;51.684;5.142;2023-01-28T03:58:30;8.55;;;7.75;;
67839;SDS011;54636;51.684;5.142;2023-01-28T04:01:11;7.72;;;7.03;;
67839;SDS011;54636;51.684;5.142;2023-01-28T04:03:37;7.75;;;7.13;;
67839;SDS011;54636;51.684;5.142;2023-01-28T04:06:03;8.18;;;7.38;;
67839;SDS011;54636;51.684;5.142;2023-01-28T04:08:30;7.63;;;6.75;;
67839;SDS011;54636;51.684;5.142;2023-01-28T04:10:55;8.02;;;7.32;;
67839;SDS011;54636;51.684;5.142;2023-01-28T04:13:21;7.90;;;7.22;;
67839;SDS011;54636;51.684;5.142;2023-01-28T04:15:47;7.45;;;6.85;;
67839;SDS011;54636;51.684;5.142;2023-01-28T04:18:12;7.28;;;6.68;;
67839;SDS011;54636;51.684;5.142;2023-01-28T04:20:38;8.52;;;7.65;;
67839;SDS011;54636;51.684;5.142;2023-01-28T04:23:04;8.15;;;7.38;;
67839;SDS011;54636;51.684;5.142;2023-01-28T04:25:30;7.55;;;6.95;;
67839;SDS011;54636;51.684;5.142;2023-01-28T04:27:56;7.82;;;7.10;;
67839;SDS011;54636;51.684;5.142;2023-01-28T04:30:21;7.55;;;6.85;;
67839;SDS011;54636;51.684;5.142;2023-01-28T04:32:47;6.68;;;6.07;;
67839;SDS011;54636;51.684;5.142;2023-01-28T04:35:16;6.97;;;6.43;;
67839;SDS011;54636;51.684;5.142;2023-01-28T04:37:42;7.80;;;7.07;;
67839;SDS011;54636;51.684;5.142;2023-01-28T04:40:08;7.40;;;6.80;;
67839;SDS011;54636;51.684;5.142;2023-01-28T04:42:35;7.63;;;6.85;;
67839;SDS011;54636;51.684;5.142;2023-01-28T04:45:00;7.90;;;7.20;;
67839;SDS011;54636;51.684;5.142;2023-01-28T04:47:26;7.60;;;6.97;;
67839;SDS011;54636;51.684;5.142;2023-01-28T04:49:51;8.10;;;7.30;;
67839;SDS011;54636;51.684;5.142;2023-01-28T04:52:16;7.40;;;6.80;;
67839;SDS011;54636;51.684;5.142;2023-01-28T04:54:42;7.35;;;6.65;;
67839;SDS011;54636;51.684;5.142;2023-01-28T04:57:07;4.88;;;4.47;;
67839;SDS011;54636;51.684;5.142;2023-01-28T04:59:32;7.10;;;6.50;;
67839;SDS011;54636;51.684;5.142;2023-01-28T05:01:58;7.00;;;6.45;;
67839;SDS011;54636;51.684;5.142;2023-01-28T05:04:23;7.18;;;6.47;;
67839;SDS011;54636;51.684;5.142;2023-01-28T05:06:48;8.60;;;7.90;;
67839;SDS011;54636;51.684;5.142;2023-01-28T05:09:14;5.85;;;5.47;;
67839;SDS011;54636;51.684;5.142;2023-01-28T05:11:39;7.38;;;6.88;;
67839;SDS011;54636;51.684;5.142;2023-01-28T05:14:05;7.88;;;7.28;;
67839;SDS011;54636;51.684;5.142;2023-01-28T05:16:30;7.65;;;7.00;;
67839;SDS011;54636;51.684;5.142;2023-01-28T05:18:56;7.28;;;6.68;;
67839;SDS011;54636;51.684;5.142;2023-01-28T05:21:21;7.50;;;6.82;;
67839;SDS011;54636;51.684;5.142;2023-01-28T05:23:47;6.80;;;6.18;;
67839;SDS011;54636;51.684;5.142;2023-01-28T05:26:12;7.40;;;6.82;;
67839;SDS011;54636;51.684;5.142;2023-01-28T05:28:38;7.50;;;6.60;;
67839;SDS011;54636;51.684;5.142;2023-01-28T05:31:03;7.47;;;6.85;;
67839;SDS011;54636;51.684;5.142;2023-01-28T05:33:30;8.02;;;7.32;;
67839;SDS011;54636;51.684;5.142;2023-01-28T05:35:56;7.18;;;6.57;;
67839;SDS011;54636;51.684;5.142;2023-01-28T05:38:22;7.72;;;7.13;;
67839;SDS011;54636;51.684;5.142;2023-01-28T05:40:47;7.50;;;6.80;;
67839;SDS011;54636;51.684;5.142;2023-01-28T05:43:13;7.93;;;7.32;;
67839;SDS011;54636;51.684;5.142;2023-01-28T05:45:39;7.97;;;7.25;;
67839;SDS011;54636;51.684;5.142;2023-01-28T05:48:04;7.57;;;6.95;;
67839;SDS011;54636;51.684;5.142;2023-01-28T05:50:30;8.50;;;7.68;;
67839;SDS011;54636;51.684;5.142;2023-01-28T05:52:55;8.20;;;7.50;;
67839;SDS011;54636;51.684;5.142;2023-01-28T05:55:20;8.30;;;7.40;;
67839;SDS011;54636;51.684;5.142;2023-01-28T05:57:46;7.70;;;7.10;;
67839;SDS011;54636;51.684;5.142;2023-01-28T06:00:12;8.65;;;7.75;;
67839;SDS011;54636;51.684;5.142;2023-01-28T06:02:39;8.60;;;7.85;;
67839;SDS011;54636;51.684;5.142;2023-01-28T06:05:05;8.80;;;8.00;;
67839;SDS011;54636;51.684;5.142;2023-01-28T06:07:31;9.05;;;8.35;;
67839;SDS011;54636;51.684;5.142;2023-01-28T06:09:56;8.45;;;7.72;;
67839;SDS011;54636;51.684;5.142;2023-01-28T06:12:22;9.18;;;8.38;;
67839;SDS011;54636;51.684;5.142;2023-01-28T06:14:47;8.98;;;8.18;;
67839;SDS011;54636;51.684;5.142;2023-01-28T06:17:12;8.73;;;7.93;;
67839;SDS011;54636;51.684;5.142;2023-01-28T06:19:38;7.75;;;7.05;;
67839;SDS011;54636;51.684;5.142;2023-01-28T06:22:03;8.93;;;8.13;;
67839;SDS011;54636;51.684;5.142;2023-01-28T06:24:28;8.70;;;7.97;;
67839;SDS011;54636;51.684;5.142;2023-01-28T06:26:54;8.10;;;7.40;;
67839;SDS011;54636;51.684;5.142;2023-01-28T06:29:19;7.55;;;7.05;;
67839;SDS011;54636;51.684;5.142;2023-01-28T06:31:44;8.02;;;7.32;;
67839;SDS011;54636;51.684;5.142;2023-01-28T06:34:10;9.00;;;8.13;;
67839;SDS011;54636;51.684;5.142;2023-01-28T06:36:35;9.13;;;8.32;;
67839;SDS011;54636;51.684;5.142;2023-01-28T06:39:02;8.52;;;7.82;;
67839;SDS011;54636;51.684;5.142;2023-01-28T06:41:28;9.02;;;8.23;;
67839;SDS011;54636;51.684;5.142;2023-01-28T06:43:53;9.07;;;8.38;;
67839;SDS011;54636;51.684;5.142;2023-01-28T06:46:19;11.70;;;9.18;;
67839;SDS011;54636;51.684;5.142;2023-01-28T06:48:44;10.15;;;9.15;;
67839;SDS011;54636;51.684;5.142;2023-01-28T06:51:10;8.77;;;7.97;;
67839;SDS011;54636;51.684;5.142;2023-01-28T06:53:35;9.35;;;8.63;;
67839;SDS011;54636;51.684;5.142;2023-01-28T06:56:00;9.32;;;8.52;;
67839;SDS011;54636;51.684;5.142;2023-01-28T06:58:26;8.77;;;8.00;;
67839;SDS011;54636;51.684;5.142;2023-01-28T07:00:52;8.75;;;8.05;;
67839;SDS011;54636;51.684;5.142;2023-01-28T07:03:18;8.93;;;8.13;;
67839;SDS011;54636;51.684;5.142;2023-01-28T07:05:43;9.68;;;8.27;;
67839;SDS011;54636;51.684;5.142;2023-01-28T07:08:08;9.73;;;8.85;;
67839;SDS011;54636;51.684;5.142;2023-01-28T07:10:34;8.77;;;8.07;;
67839;SDS011;54636;51.684;5.142;2023-01-28T07:13:00;9.10;;;8.20;;
67839;SDS011;54636;51.684;5.142;2023-01-28T07:15:25;8.60;;;7.88;;
67839;SDS011;54636;51.684;5.142;2023-01-28T07:17:50;8.52;;;7.63;;
67839;SDS011;54636;51.684;5.142;2023-01-28T07:20:16;9.27;;;8.48;;
67839;SDS011;54636;51.684;5.142;2023-01-28T07:22:42;8.57;;;7.88;;
67839;SDS011;54636;51.684;5.142;2023-01-28T07:25:08;9.13;;;8.27;;
67839;SDS011;54636;51.684;5.142;2023-01-28T07:27:35;9.18;;;8.38;;
67839;SDS011;54636;51.684;5.142;2023-01-28T07:30:01;9.35;;;8.48;;
67839;SDS011;54636;51.684;5.142;2023-01-28T07:32:27;9.13;;;8.10;;
67839;SDS011;54636;51.684;5.142;2023-01-28T07:34:52;9.10;;;8.27;;
67839;SDS011;54636;51.684;5.142;2023-01-28T07:37:18;9.07;;;8.27;;
67839;SDS011;54636;51.684;5.142;2023-01-28T07:39:44;8.85;;;8.05;;
67839;SDS011;54636;51.684;5.142;2023-01-28T07:42:10;9.00;;;8.20;;
67839;SDS011;54636;51.684;5.142;2023-01-28T07:44:35;8.73;;;7.93;;
67839;SDS011;54636;51.684;5.142;2023-01-28T07:47:02;8.95;;;7.53;;
67839;SDS011;54636;51.684;5.142;2023-01-28T07:49:28;16.38;;;12.90;;
67839;SDS011;54636;51.684;5.142;2023-01-28T07:51:53;20.35;;;15.35;;
67839;SDS011;54636;51.684;5.142;2023-01-28T07:54:19;15.35;;;11.82;;
67839;SDS011;54636;51.684;5.142;2023-01-28T07:56:44;12.75;;;11.32;;
67839;SDS011;54636;51.684;5.142;2023-01-28T07:59:09;16.45;;;12.77;;
67839;SDS011;54636;51.684;5.142;2023-01-28T08:01:35;11.05;;;9.68;;
67839;SDS011;54636;51.684;5.142;2023-01-28T08:04:00;13.77;;;11.75;;
67839;SDS011;54636;51.684;5.142;2023-01-28T08:06:29;13.40;;;10.18;;
67839;SDS011;54636;51.684;5.142;2023-01-28T08:08:55;14.82;;;11.20;;
67839;SDS011;54636;51.684;5.142;2023-01-28T08:11:20;13.15;;;10.63;;
67839;SDS011;54636;51.684;5.142;2023-01-28T08:13:47;11.13;;;9.93;;
67839;SDS011;54636;51.684;5.142;2023-01-28T08:16:13;13.60;;;10.88;;
67839;SDS011;54636;51.684;5.142;2023-01-28T08:18:38;9.82;;;8.93;;
67839;SDS011;54636;51.684;5.142;2023-01-28T08:21:03;9.57;;;8.57;;
67839;SDS011;54636;51.684;5.142;2023-01-28T08:23:29;11.75;;;9.35;;
67839;SDS011;54636;51.684;5.142;2023-01-28T08:25:56;15.68;;;12.05;;
67839;SDS011;54636;51.684;5.142;2023-01-28T08:28:23;10.48;;;9.48;;
67839;SDS011;54636;51.684;5.142;2023-01-28T08:30:48;10.25;;;9.20;;
67839;SDS011;54636;51.684;5.142;2023-01-28T08:33:14;8.93;;;8.13;;
67839;SDS011;54636;51.684;5.142;2023-01-28T08:35:41;9.05;;;8.15;;
67839;SDS011;54636;51.684;5.142;2023-01-28T08:38:07;11.70;;;8.90;;
67839;SDS011;54636;51.684;5.142;2023-01-28T08:40:33;9.23;;;6.97;;
67839;SDS011;54636;51.684;5.142;2023-01-28T08:42:59;7.63;;;6.95;;
67839;SDS011;54636;51.684;5.142;2023-01-28T08:45:25;8.05;;;7.35;;
67839;SDS011;54636;51.684;5.142;2023-01-28T08:50:17;7.97;;;7.28;;
67839;SDS011;54636;51.684;5.142;2023-01-28T08:52:44;8.57;;;7.78;;
67839;SDS011;54636;51.684;5.142;2023-01-28T08:55:14;8.48;;;7.68;;
67839;SDS011;54636;51.684;5.142;2023-01-28T08:57:40;9.60;;;8.75;;
67839;SDS011;54636;51.684;5.142;2023-01-28T09:00:06;11.70;;;8.18;;
67839;SDS011;54636;51.684;5.142;2023-01-28T09:02:35;8.93;;;8.05;;
67839;SDS011;54636;51.684;5.142;2023-01-28T09:05:01;8.43;;;7.63;;
67839;SDS011;54636;51.684;5.142;2023-01-28T09:07:27;7.93;;;7.28;;
67839;SDS011;54636;51.684;5.142;2023-01-28T09:09:52;8.55;;;7.82;;
67839;SDS011;54636;51.684;5.142;2023-01-28T09:12:17;9.38;;;8.45;;
67839;SDS011;54636;51.684;5.142;2023-01-28T09:14:43;8.55;;;7.75;;
67839;SDS011;54636;51.684;5.142;2023-01-28T09:17:08;8.02;;;7.22;;
67839;SDS011;54636;51.684;5.142;2023-01-28T09:19:34;8.75;;;7.95;;
67839;SDS011;54636;51.684;5.142;2023-01-28T09:21:59;7.88;;;7.30;;
67839;SDS011;54636;51.684;5.142;2023-01-28T09:24:27;11.32;;;7.75;;
67839;SDS011;54636;51.684;5.142;2023-01-28T09:26:53;7.78;;;6.45;;
67839;SDS011;54636;51.684;5.142;2023-01-28T09:29:18;8.65;;;7.85;;
67839;SDS011;54636;51.684;5.142;2023-01-28T09:31:43;7.88;;;7.18;;
67839;SDS011;54636;51.684;5.142;2023-01-28T09:34:09;7.55;;;6.82;;
67839;SDS011;54636;51.684;5.142;2023-01-28T09:36:34;7.43;;;6.93;;
67839;SDS011;54636;51.684;5.142;2023-01-28T09:39:00;8.18;;;7.10;;
67839;SDS011;54636;51.684;5.142;2023-01-28T09:41:27;7.93;;;7.28;;
67839;SDS011;54636;51.684;5.142;2023-01-28T09:46:43;15.45;;;6.75;;
67839;SDS011;54636;51.684;5.142;2023-01-28T09:49:20;8.43;;;7.78;;
67839;SDS011;54636;51.684;5.142;2023-01-28T09:51:52;6.78;;;6.18;;
67839;SDS011;54636;51.684;5.142;2023-01-28T09:54:28;7.43;;;6.82;;
67839;SDS011;54636;51.684;5.142;2023-01-28T09:57:03;8.93;;;8.18;;
67839;SDS011;54636;51.684;5.142;2023-01-28T09:59:36;9.00;;;8.20;;
67839;SDS011;54636;51.684;5.142;2023-01-28T10:15:33;8.57;;;7.88;;
67839;SDS011;54636;51.684;5.142;2023-01-28T10:18:15;7.00;;;5.93;;
67839;SDS011;54636;51.684;5.142;2023-01-28T10:23:21;8.55;;;7.75;;
67839;SDS011;54636;51.684;5.142;2023-01-28T10:25:51;8.43;;;7.72;;
67839;SDS011;54636;51.684;5.142;2023-01-28T10:28:20;8.82;;;7.93;;
67839;SDS011;54636;51.684;5.142;2023-01-28T10:30:49;9.15;;;8.23;;
67839;SDS011;54636;51.684;5.142;2023-01-28T10:36:16;9.25;;;8.45;;
67839;SDS011;54636;51.684;5.142;2023-01-28T10:38:42;12.23;;;9.05;;
67839;SDS011;54636;51.684;5.142;2023-01-28T10:41:08;9.30;;;8.18;;
67839;SDS011;54636;51.684;5.142;2023-01-28T10:43:39;9.55;;;8.63;;
67839;SDS011;54636;51.684;5.142;2023-01-28T10:48:41;7.53;;;6.93;;
67839;SDS011;54636;51.684;5.142;2023-01-28T10:51:11;9.02;;;8.13;;
67839;SDS011;54636;51.684;5.142;2023-01-28T10:56:06;6.38;;;5.90;;
67839;SDS011;54636;51.684;5.142;2023-01-28T10:58:36;9.40;;;6.25;;
67839;SDS011;54636;51.684;5.142;2023-01-28T11:01:13;6.03;;;5.53;;
67839;SDS011;54636;51.684;5.142;2023-01-28T11:03:39;6.60;;;6.10;;
67839;SDS011;54636;51.684;5.142;2023-01-28T11:06:22;4.93;;;4.53;;
67839;SDS011;54636;51.684;5.142;2023-01-28T11:08:49;6.15;;;5.57;;
67839;SDS011;54636;51.684;5.142;2023-01-28T11:11:14;6.80;;;6.20;;
67839;SDS011;54636;51.684;5.142;2023-01-28T11:13:48;6.90;;;5.88;;
67839;SDS011;54636;51.684;5.142;2023-01-28T11:16:18;5.50;;;5.05;;
67839;SDS011;54636;51.684;5.142;2023-01-28T11:21:23;6.65;;;5.00;;
67839;SDS011;54636;51.684;5.142;2023-01-28T11:24:00;5.03;;;4.63;;
67839;SDS011;54636;51.684;5.142;2023-01-28T11:26:30;6.18;;;5.68;;
67839;SDS011;54636;51.684;5.142;2023-01-28T11:31:24;4.63;;;4.32;;
67839;SDS011;54636;51.684;5.142;2023-01-28T11:33:53;4.32;;;4.03;;
67839;SDS011;54636;51.684;5.142;2023-01-28T11:36:23;4.18;;;3.90;;
67839;SDS011;54636;51.684;5.142;2023-01-28T11:38:57;3.85;;;3.65;;
67839;SDS011;54636;51.684;5.142;2023-01-28T11:41:29;4.93;;;4.53;;
67839;SDS011;54636;51.684;5.142;2023-01-28T11:43:58;4.70;;;4.22;;
67839;SDS011;54636;51.684;5.142;2023-01-28T11:55:40;3.83;;;3.55;;
67839;SDS011;54636;51.684;5.142;2023-01-28T12:03:52;2.28;;;1.98;;
67839;SDS011;54636;51.684;5.142;2023-01-28T12:09:00;9.50;;;3.53;;
67839;SDS011;54636;51.684;5.142;2023-01-28T12:18:07;2.63;;;2.42;;
67839;SDS011;54636;51.684;5.142;2023-01-28T12:25:44;3.38;;;3.10;;
67839;SDS011;54636;51.684;5.142;2023-01-28T12:36:32;5.00;;;3.60;;
67839;SDS011;54636;51.684;5.142;2023-01-28T12:42:44;8.05;;;3.92;;
67839;SDS011;54636;51.684;5.142;2023-01-28T12:45:15;4.75;;;3.75;;
67839;SDS011;54636;51.684;5.142;2023-01-28T12:47:52;4.57;;;4.18;;
67839;SDS011;54636;51.684;5.142;2023-01-28T12:50:30;5.43;;;4.63;;
67839;SDS011;54636;51.684;5.142;2023-01-28T12:53:48;4.53;;;4.13;;
67839;SDS011;54636;51.684;5.142;2023-01-28T12:55:58;4.90;;;4.50;;
67839;SDS011;54636;51.684;5.142;2023-01-28T12:58:36;4.43;;;3.95;;
67839;SDS011;54636;51.684;5.142;2023-01-28T13:01:08;6.25;;;4.75;;
67839;SDS011;54636;51.684;5.142;2023-01-28T13:06:40;4.45;;;4.00;;
67839;SDS011;54636;51.684;5.142;2023-01-28T13:09:14;5.38;;;3.72;;
67839;SDS011;54636;51.684;5.142;2023-01-28T13:11:42;4.35;;;4.00;;
67839;SDS011;54636;51.684;5.142;2023-01-28T13:14:10;5.05;;;4.53;;
67839;SDS011;54636;51.684;5.142;2023-01-28T13:16:37;4.93;;;4.15;;
67839;SDS011;54636;51.684;5.142;2023-01-28T13:19:20;3.60;;;3.30;;
67839;SDS011;54636;51.684;5.142;2023-01-28T13:22:08;4.47;;;4.07;;
67839;SDS011;54636;51.684;5.142;2023-01-28T13:24:50;7.18;;;3.70;;
67839;SDS011;54636;51.684;5.142;2023-01-28T13:27:20;4.03;;;3.70;;
67839;SDS011;54636;51.684;5.142;2023-01-28T13:29:47;3.83;;;3.63;;
67839;SDS011;54636;51.684;5.142;2023-01-28T13:32:27;3.83;;;3.28;;
67839;SDS011;54636;51.684;5.142;2023-01-28T13:34:59;3.85;;;3.55;;
67839;SDS011;54636;51.684;5.142;2023-01-28T13:37:35;3.08;;;2.88;;
67839;SDS011;54636;51.684;5.142;2023-01-28T13:42:37;4.40;;;4.10;;
67839;SDS011;54636;51.684;5.142;2023-01-28T13:47:45;7.63;;;4.20;;
67839;SDS011;54636;51.684;5.142;2023-01-28T13:50:19;4.97;;;4.07;;
67839;SDS011;54636;51.684;5.142;2023-01-28T13:52:54;6.07;;;3.25;;
67839;SDS011;54636;51.684;5.142;2023-01-28T13:55:30;4.20;;;3.80;;
67839;SDS011;54636;51.684;5.142;2023-01-28T14:06:44;4.72;;;4.32;;
67839;SDS011;54636;51.684;5.142;2023-01-28T14:17:15;5.47;;;4.55;;
67839;SDS011;54636;51.684;5.142;2023-01-28T14:19:44;2.05;;;1.95;;
67839;SDS011;54636;51.684;5.142;2023-01-28T14:22:16;4.43;;;4.03;;
67839;SDS011;54636;51.684;5.142;2023-01-28T14:24:43;3.85;;;3.55;;
67839;SDS011;54636;51.684;5.142;2023-01-28T14:32:25;4.20;;;3.90;;
67839;SDS011;54636;51.684;5.142;2023-01-28T14:34:53;3.75;;;3.45;;
67839;SDS011;54636;51.684;5.142;2023-01-28T14:37:21;4.20;;;3.80;;
67839;SDS011;54636;51.684;5.142;2023-01-28T14:39:50;4.18;;;3.88;;
67839;SDS011;54636;51.684;5.142;2023-01-28T14:42:23;5.50;;;4.57;;
67839;SDS011;54636;51.684;5.142;2023-01-28T14:45:03;10.95;;;7.75;;
67839;SDS011;54636;51.684;5.142;2023-01-28T14:58:41;4.22;;;3.92;;
67839;SDS011;54636;51.684;5.142;2023-01-28T15:01:22;4.55;;;3.67;;
67839;SDS011;54636;51.684;5.142;2023-01-28T15:03:49;5.55;;;4.60;;
67839;SDS011;54636;51.684;5.142;2023-01-28T15:06:16;5.35;;;4.85;;
67839;SDS011;54636;51.684;5.142;2023-01-28T15:08:45;4.73;;;4.33;;
67839;SDS011;54636;51.684;5.142;2023-01-28T15:11:12;4.88;;;4.47;;
67839;SDS011;54636;51.684;5.142;2023-01-28T15:13:47;4.72;;;4.25;;
67839;SDS011;54636;51.684;5.142;2023-01-28T15:16:20;6.75;;;4.88;;
67839;SDS011;54636;51.684;5.142;2023-01-28T15:18:47;4.88;;;4.38;;
67839;SDS011;54636;51.684;5.142;2023-01-28T15:21:20;4.78;;;4.38;;
67839;SDS011;54636;51.684;5.142;2023-01-28T15:23:48;6.03;;;4.53;;
67839;SDS011;54636;51.684;5.142;2023-01-28T15:28:48;5.28;;;4.78;;
67839;SDS011;54636;51.684;5.142;2023-01-28T15:31:30;4.70;;;4.30;;
67839;SDS011;54636;51.684;5.142;2023-01-28T15:34:14;7.75;;;4.55;;
67839;SDS011;54636;51.684;5.142;2023-01-28T15:36:42;5.28;;;4.88;;
67839;SDS011;54636;51.684;5.142;2023-01-28T15:39:14;5.45;;;4.95;;
67839;SDS011;54636;51.684;5.142;2023-01-28T15:41:43;6.30;;;4.85;;
67839;SDS011;54636;51.684;5.142;2023-01-28T15:44:32;16.63;;;9.63;;
67839;SDS011;54636;51.684;5.142;2023-01-28T15:47:02;22.92;;;13.10;;
67839;SDS011;54636;51.684;5.142;2023-01-28T15:49:40;11.10;;;8.90;;
67839;SDS011;54636;51.684;5.142;2023-01-28T15:52:08;6.80;;;5.95;;
67839;SDS011;54636;51.684;5.142;2023-01-28T15:54:38;7.00;;;6.15;;
67839;SDS011;54636;51.684;5.142;2023-01-28T15:57:24;7.55;;;6.13;;
67839;SDS011;54636;51.684;5.142;2023-01-28T16:00:11;5.53;;;5.05;;
67839;SDS011;54636;51.684;5.142;2023-01-28T16:02:41;7.72;;;6.25;;
67839;SDS011;54636;51.684;5.142;2023-01-28T16:07:56;6.53;;;5.93;;
67839;SDS011;54636;51.684;5.142;2023-01-28T16:10:26;9.18;;;6.07;;
67839;SDS011;54636;51.684;5.142;2023-01-28T16:12:55;6.38;;;5.78;;
67839;SDS011;54636;51.684;5.142;2023-01-28T16:15:28;5.80;;;5.30;;
67839;SDS011;54636;51.684;5.142;2023-01-28T16:17:55;6.30;;;5.65;;
67839;SDS011;54636;51.684;5.142;2023-01-28T16:20:21;7.22;;;6.53;;
67839;SDS011;54636;51.684;5.142;2023-01-28T16:22:50;8.30;;;6.28;;
67839;SDS011;54636;51.684;5.142;2023-01-28T16:25:34;8.95;;;6.70;;
67839;SDS011;54636;51.684;5.142;2023-01-28T16:28:12;7.97;;;7.18;;
67839;SDS011;54636;51.684;5.142;2023-01-28T16:30:42;7.15;;;6.38;;
67839;SDS011;54636;51.684;5.142;2023-01-28T16:33:18;8.07;;;7.28;;
67839;SDS011;54636;51.684;5.142;2023-01-28T16:35:44;9.52;;;6.97;;
67839;SDS011;54636;51.684;5.142;2023-01-28T16:38:10;11.70;;;8.85;;
67839;SDS011;54636;51.684;5.142;2023-01-28T16:40:40;16.95;;;10.00;;
67839;SDS011;54636;51.684;5.142;2023-01-28T16:43:10;11.02;;;8.40;;
67839;SDS011;54636;51.684;5.142;2023-01-28T16:45:36;15.40;;;9.82;;
67839;SDS011;54636;51.684;5.142;2023-01-28T16:48:02;11.55;;;9.43;;
67839;SDS011;54636;51.684;5.142;2023-01-28T16:50:28;13.10;;;8.38;;
67839;SDS011;54636;51.684;5.142;2023-01-28T16:52:55;10.45;;;7.50;;
67839;SDS011;54636;51.684;5.142;2023-01-28T16:55:22;12.57;;;9.13;;
67839;SDS011;54636;51.684;5.142;2023-01-28T16:57:48;6.47;;;5.63;;
67839;SDS011;54636;51.684;5.142;2023-01-28T17:00:17;8.15;;;6.70;;
67839;SDS011;54636;51.684;5.142;2023-01-28T17:02:54;12.57;;;7.32;;
67839;SDS011;54636;51.684;5.142;2023-01-28T17:05:20;8.18;;;7.28;;
67839;SDS011;54636;51.684;5.142;2023-01-28T17:07:46;7.63;;;6.45;;
67839;SDS011;54636;51.684;5.142;2023-01-28T17:10:13;13.30;;;7.05;;
67839;SDS011;54636;51.684;5.142;2023-01-28T17:12:39;7.53;;;6.82;;
67839;SDS011;54636;51.684;5.142;2023-01-28T17:15:05;8.40;;;6.18;;
67839;SDS011;54636;51.684;5.142;2023-01-28T17:17:31;7.63;;;6.85;;
67839;SDS011;54636;51.684;5.142;2023-01-28T17:19:57;7.22;;;6.50;;